Time;durP1;ratioP1;P1;durP2;ratioP2;P2;SDS_P1;SDS_P2;PMS_P1;PMS_P2;Temp;Humidity;BMP_temperature;BMP_pressure;BME280_temperature;BME280_humidity;BME280_pressure;Samples;Min_cycle;Max_cycle;Signal;HPM_P1;HPM_P2
2022/06/10 00:00:47;;;;;;;2.93;1.47;;;10.30;99.90;;;;;;5042883;28;20179;-85
2022/06/10 00:03:16;;;;;;;3.40;1.70;;;10.30;99.90;;;;;;5042943;28;20197;-85
2022/06/10 00:05:44;;;;;;;4.23;1.60;;;10.30;99.90;;;;;;5043898;28;20174;-85
2022/06/10 00:08:13;;;;;;;3.13;1.47;;;10.30;99.90;;;;;;5043421;28;20233;-85
2022/06/10 00:10:40;;;;;;;3.93;2.03;;;10.40;99.90;;;;;;5042906;28;20175;-85
2022/06/10 00:13:06;;;;;;;2.60;1.63;;;10.40;99.90;;;;;;5045070;28;20648;-85
2022/06/10 00:15:32;;;;;;;2.57;1.87;;;10.40;99.90;;;;;;5043136;28;20273;-85
2022/06/10 00:17:58;;;;;;;5.53;2.20;;;10.50;99.90;;;;;;5042432;28;20335;-85
2022/06/10 00:20:28;;;;;;;2.80;1.70;;;10.50;99.90;;;;;;5042454;28;20199;-85
2022/06/10 00:22:54;;;;;;;3.00;1.87;;;10.50;99.90;;;;;;5044234;28;20202;-86
2022/06/10 00:25:21;;;;;;;4.17;1.47;;;10.50;99.90;;;;;;5044335;28;20179;-85
2022/06/10 00:27:48;;;;;;;3.17;1.87;;;10.60;99.90;;;;;;5043844;28;20199;-85
2022/06/10 00:30:16;;;;;;;2.87;1.50;;;10.60;99.90;;;;;;5042783;28;20174;-85
2022/06/10 00:32:42;;;;;;;3.67;1.40;;;;;;;;;;5043058;28;20228;-86
2022/06/10 00:35:09;;;;;;;3.27;1.63;;;10.60;99.90;;;;;;5042922;28;20209;-85
2022/06/10 00:37:35;;;;;;;5.77;2.00;;;10.70;99.90;;;;;;5044070;28;20193;-87
2022/06/10 00:40:00;;;;;;;2.53;1.30;;;10.70;99.90;;;;;;5042894;28;20182;-85
2022/06/10 00:42:26;;;;;;;1.73;1.43;;;;;;;;;;5042430;28;20656;-85
2022/06/10 00:44:53;;;;;;;1.57;1.30;;;10.70;99.90;;;;;;5042961;28;20180;-85
2022/06/10 00:47:29;;;;;;;3.63;1.80;;;10.70;99.90;;;;;;5042234;28;20175;-85
2022/06/10 00:50:24;;;;;;;3.67;1.57;;;10.70;99.90;;;;;;5041949;28;20659;-85
2022/06/10 00:53:01;;;;;;;2.67;1.60;;;10.70;99.90;;;;;;5042862;28;20219;-85
2022/06/10 00:55:29;;;;;;;2.63;1.30;;;10.70;99.90;;;;;;5043192;28;20182;-86
2022/06/10 00:58:12;;;;;;;2.33;1.20;;;10.70;99.90;;;;;;5044172;28;20207;-86
2022/06/10 01:00:38;;;;;;;2.03;1.50;;;10.70;99.90;;;;;;5043555;28;20193;-86
2022/06/10 01:03:04;;;;;;;3.33;1.53;;;10.70;99.90;;;;;;5044285;28;20209;-85
2022/06/10 01:05:30;;;;;;;1.67;1.37;;;10.70;99.90;;;;;;5044539;28;20179;-85
2022/06/10 01:08:03;;;;;;;4.40;1.20;;;10.70;99.90;;;;;;5043564;28;20212;-85
2022/06/10 01:10:38;;;;;;;3.70;1.53;;;10.60;99.90;;;;;;5042062;28;20275;-85
2022/06/10 01:13:22;;;;;;;1.57;1.47;;;10.70;99.90;;;;;;5042474;28;20197;-85
2022/06/10 01:16:02;;;;;;;2.43;1.20;;;10.60;99.90;;;;;;5043298;28;20180;-85
2022/06/10 01:18:34;;;;;;;1.77;1.30;;;10.60;99.90;;;;;;5043082;28;20226;-85
2022/06/10 01:21:18;;;;;;;1.77;1.27;;;10.60;99.90;;;;;;5054877;28;20178;-85
2022/06/10 01:23:47;;;;;;;1.87;1.10;;;;;;;;;;5041182;28;20212;-85
2022/06/10 01:27:47;;;;;;;2.80;1.30;;;10.60;99.90;;;;;;5040593;28;20188;-85
2022/06/10 01:29:39;;;;;;;2.57;1.50;;;10.60;99.90;;;;;;5042466;28;20252;-85
2022/06/10 01:32:26;;;;;;;3.33;1.53;;;10.60;99.90;;;;;;5041428;28;20182;-85
2022/06/10 01:35:37;;;;;;;2.70;1.47;;;10.60;99.90;;;;;;5041177;28;20186;-85
2022/06/10 01:38:23;;;;;;;2.47;1.30;;;10.60;99.90;;;;;;5041250;28;20202;-85
2022/06/10 01:41:07;;;;;;;1.73;1.50;;;10.60;99.90;;;;;;5040804;28;20209;-85
2022/06/10 01:44:08;;;;;;;3.77;1.50;;;10.60;99.90;;;;;;5041540;28;20198;-85
2022/06/10 01:46:37;;;;;;;2.90;1.40;;;10.60;99.90;;;;;;5040665;28;20274;-85
2022/06/10 01:49:24;;;;;;;3.47;1.40;;;10.60;99.90;;;;;;5041075;28;20201;-85
2022/06/10 01:52:17;;;;;;;5.13;1.67;;;10.50;99.90;;;;;;5040283;28;20176;-85
2022/06/10 01:54:59;;;;;;;2.13;1.53;;;10.40;99.90;;;;;;5041730;28;20175;-85
2022/06/10 01:57:41;;;;;;;3.10;1.73;;;10.40;99.90;;;;;;5041716;28;20226;-85
2022/06/10 02:00:15;;;;;;;3.37;1.70;;;10.30;99.90;;;;;;5040746;28;20245;-84
2022/06/10 02:02:47;;;;;;;2.70;1.93;;;10.40;99.90;;;;;;5042472;28;20206;-85
2022/06/10 02:05:19;;;;;;;2.40;1.90;;;10.40;99.90;;;;;;5040247;28;20178;-85
2022/06/10 02:08:07;;;;;;;3.33;1.90;;;10.30;99.90;;;;;;5041790;28;20183;-85
2022/06/10 02:10:39;;;;;;;2.40;1.47;;;10.30;99.90;;;;;;5041077;28;20277;-85
2022/06/10 02:13:16;;;;;;;2.53;1.90;;;10.30;99.90;;;;;;5041470;28;20187;-86
2022/06/10 02:15:48;;;;;;;3.10;1.50;;;10.30;99.90;;;;;;5041056;28;20207;-85
2022/06/10 02:18:21;;;;;;;4.17;1.90;;;10.30;99.90;;;;;;5040394;28;20291;-85
2022/06/10 02:20:52;;;;;;;3.83;1.90;;;10.40;99.90;;;;;;5040657;28;20647;-86
2022/06/10 02:23:23;;;;;;;3.00;1.77;;;10.40;99.90;;;;;;5040499;28;20214;-85
2022/06/10 02:25:51;;;;;;;2.63;1.40;;;10.40;99.90;;;;;;5042111;28;20163;-86
2022/06/10 02:28:25;;;;;;;3.20;1.80;;;10.50;99.90;;;;;;5040730;28;20215;-85
2022/06/10 02:30:59;;;;;;;3.03;1.70;;;10.50;99.90;;;;;;5042913;28;20188;-85
2022/06/10 02:33:25;;;;;;;4.37;1.80;;;10.50;99.90;;;;;;5041816;28;20181;-86
2022/06/10 02:35:54;;;;;;;4.30;1.57;;;10.40;99.90;;;;;;5040161;28;20652;-85
2022/06/10 02:38:33;;;;;;;2.43;1.80;;;10.40;99.90;;;;;;5040688;28;20198;-86
2022/06/10 02:41:08;;;;;;;3.83;1.63;;;10.40;99.90;;;;;;5040538;28;20174;-86
2022/06/10 02:44:17;;;;;;;3.20;1.20;;;10.40;99.90;;;;;;5040574;28;20247;-85
2022/06/10 02:47:05;;;;;;;4.30;1.90;;;10.30;99.90;;;;;;5041629;28;20569;-86
2022/06/10 02:49:31;;;;;;;3.43;2.00;;;10.30;99.90;;;;;;5040321;28;20226;-85
2022/06/10 02:51:57;;;;;;;3.43;2.10;;;10.30;99.90;;;;;;5041756;28;20173;-86
2022/06/10 02:54:32;;;;;;;2.23;2.00;;;10.30;99.90;;;;;;5040724;28;20209;-85
2022/06/10 02:57:10;;;;;;;5.13;2.40;;;10.30;99.90;;;;;;5040448;28;20185;-86
2022/06/10 03:02:36;;;;;;;3.40;2.20;;;10.40;99.90;;;;;;5041544;28;20206;-85
2022/06/10 03:05:09;;;;;;;3.20;2.23;;;10.30;99.90;;;;;;5041607;28;20163;-85
2022/06/10 03:07:57;;;;;;;6.17;2.00;;;10.40;99.90;;;;;;5040031;28;20200;-87
2022/06/10 03:10:52;;;;;;;3.63;2.07;;;10.40;99.90;;;;;;5040758;28;20174;-86
2022/06/10 03:13:24;;;;;;;4.30;1.87;;;10.50;99.90;;;;;;5040106;28;20181;-86
2022/06/10 03:16:28;;;;;;;4.60;1.73;;;10.40;99.90;;;;;;5041229;28;20195;-86
2022/06/10 03:19:36;;;;;;;2.33;1.80;;;10.40;99.90;;;;;;5040497;28;20202;-86
2022/06/10 03:22:08;;;;;;;3.00;1.80;;;10.40;99.90;;;;;;5026547;28;20310;-86
2022/06/10 03:24:57;;;;;;;3.97;1.93;;;10.40;99.90;;;;;;5041310;28;20213;-86
2022/06/10 03:27:31;;;;;;;5.17;1.80;;;10.40;99.90;;;;;;5040697;28;20202;-86
2022/06/10 03:30:14;;;;;;;3.13;1.70;;;10.30;99.90;;;;;;5043210;28;20205;-86
2022/06/10 03:32:43;;;;;;;3.97;2.10;;;10.40;99.90;;;;;;5046002;28;20162;-86
2022/06/10 03:35:15;;;;;;;2.77;1.67;;;10.30;99.90;;;;;;5045729;28;20179;-86
2022/06/10 03:37:41;;;;;;;3.10;1.80;;;10.30;99.90;;;;;;5043657;28;20181;-86
2022/06/10 03:40:25;;;;;;;3.97;2.10;;;10.30;99.90;;;;;;5045606;28;20183;-86
2022/06/10 03:42:54;;;;;;;2.00;1.80;;;10.30;99.90;;;;;;5045234;28;20246;-86
2022/06/10 03:45:24;;;;;;;2.73;1.70;;;10.20;99.90;;;;;;5045686;28;20636;-86
2022/06/10 03:47:51;;;;;;;4.53;2.00;;;10.20;99.90;;;;;;5045246;28;20187;-85
2022/06/10 03:50:23;;;;;;;4.90;2.13;;;10.20;99.90;;;;;;5045005;28;20183;-86
2022/06/10 03:52:48;;;;;;;3.17;2.20;;;10.20;99.90;;;;;;5046803;28;20578;-87
2022/06/10 03:55:19;;;;;;;2.63;1.90;;;10.20;99.90;;;;;;5047146;28;20184;-85
2022/06/10 03:57:46;;;;;;;4.23;2.37;;;10.10;99.90;;;;;;5046049;28;20641;-86
2022/06/10 04:00:19;;;;;;;6.67;2.30;;;10.10;99.90;;;;;;5045755;28;20192;-86
2022/06/10 04:02:45;;;;;;;3.03;1.87;;;10.10;99.90;;;;;;5046274;28;20247;-85
2022/06/10 04:05:12;;;;;;;3.87;2.10;;;;;;;;;;5044334;28;20185;-85
2022/06/10 04:07:39;;;;;;;7.70;2.07;;;10.10;99.90;;;;;;5045502;28;20180;-85
2022/06/10 04:10:06;;;;;;;2.77;2.00;;;10.00;99.90;;;;;;5042167;28;20178;-85
2022/06/10 04:12:32;;;;;;;2.30;2.10;;;10.10;99.90;;;;;;5042489;28;20600;-86
2022/06/10 04:14:57;;;;;;;6.27;1.80;;;10.10;99.90;;;;;;5042855;28;20184;-86
2022/06/10 04:17:23;;;;;;;4.13;2.30;;;10.10;99.90;;;;;;5043997;28;20185;-86
2022/06/10 04:19:49;;;;;;;5.90;2.10;;;;;;;;;;5042881;28;20214;-85
2022/06/10 04:22:16;;;;;;;4.93;2.30;;;10.30;99.90;;;;;;5043183;28;20225;-85
2022/06/10 04:24:41;;;;;;;2.90;1.50;;;10.30;99.90;;;;;;5046432;28;20374;-86
2022/06/10 04:27:07;;;;;;;3.33;2.20;;;10.40;99.90;;;;;;5055924;28;20238;-85
2022/06/10 04:29:33;;;;;;;4.60;1.70;;;10.40;99.90;;;;;;5041160;28;20249;-85
2022/06/10 04:31:58;;;;;;;3.03;2.77;;;10.50;99.90;;;;;;5041194;28;20182;-86
2022/06/10 04:34:24;;;;;;;3.27;1.90;;;10.40;99.90;;;;;;5041176;28;20185;-85
2022/06/10 04:36:50;;;;;;;4.37;1.80;;;10.50;99.90;;;;;;5041011;28;20241;-85
2022/06/10 04:39:15;;;;;;;3.90;1.70;;;10.50;99.90;;;;;;5041652;28;20256;-85
2022/06/10 04:41:41;;;;;;;2.37;2.17;;;10.60;99.90;;;;;;5041103;28;20185;-85
2022/06/10 04:44:07;;;;;;;4.10;1.90;;;10.70;99.90;;;;;;5042335;28;20607;-85
2022/06/10 04:46:39;;;;;;;3.37;1.80;;;10.80;99.90;;;;;;5041803;28;20177;-85
2022/06/10 04:49:06;;;;;;;3.87;2.20;;;10.90;99.90;;;;;;5041011;28;20198;-85
2022/06/10 04:51:33;;;;;;;6.63;1.90;;;11.00;99.90;;;;;;5040916;28;20170;-86
2022/06/10 04:53:59;;;;;;;5.47;2.10;;;11.10;99.90;;;;;;5042051;28;20656;-86
2022/06/10 04:56:25;;;;;;;3.17;2.03;;;;;;;;;;5041810;28;20183;-86
2022/06/10 04:58:51;;;;;;;3.50;2.10;;;11.30;99.90;;;;;;5041341;28;20198;-86
2022/06/10 05:01:17;;;;;;;3.93;1.73;;;11.40;99.90;;;;;;5040407;28;20236;-85
2022/06/10 05:03:43;;;;;;;4.37;2.10;;;11.50;99.90;;;;;;5040346;28;20711;-87
2022/06/10 05:06:09;;;;;;;4.20;2.50;;;11.60;99.90;;;;;;5038729;28;20213;-88
2022/06/10 05:08:34;;;;;;;5.00;1.93;;;11.70;99.90;;;;;;4994887;28;1271822;-88
2022/06/10 05:11:00;;;;;;;5.77;2.23;;;11.70;99.90;;;;;;5039345;28;20544;-87
2022/06/10 05:13:26;;;;;;;3.73;1.73;;;;;;;;;;5044024;28;20186;-87
2022/06/10 05:15:52;;;;;;;3.87;1.67;;;11.80;99.90;;;;;;5045048;28;20221;-87
2022/06/10 05:18:21;;;;;;;3.87;1.73;;;11.80;99.90;;;;;;5043564;28;20201;-87
2022/06/10 05:20:49;;;;;;;1.87;1.50;;;11.80;99.90;;;;;;5043909;28;20185;-87
2022/06/10 05:23:17;;;;;;;3.10;2.03;;;11.80;99.90;;;;;;5043949;28;20260;-87
2022/06/10 05:25:43;;;;;;;2.30;1.60;;;11.80;99.90;;;;;;5043758;28;20182;-87
2022/06/10 05:28:11;;;;;;;4.33;1.83;;;11.80;99.90;;;;;;5043171;28;20261;-87
2022/06/10 05:30:37;;;;;;;3.07;1.30;;;11.80;99.90;;;;;;5044549;28;20177;-87
2022/06/10 05:33:05;;;;;;;3.13;1.60;;;11.80;99.90;;;;;;5046918;28;20186;-87
2022/06/10 05:35:31;;;;;;;4.17;2.00;;;11.90;99.90;;;;;;5042832;28;20182;-87
2022/06/10 05:37:57;;;;;;;5.67;1.70;;;11.90;99.90;;;;;;5045651;28;20779;-86
2022/06/10 05:40:25;;;;;;;3.30;1.90;;;11.90;99.90;;;;;;5044978;28;20281;-87
2022/06/10 05:42:51;;;;;;;2.87;1.73;;;12.00;99.90;;;;;;5046627;28;20205;-87
2022/06/10 05:45:19;;;;;;;3.83;1.80;;;12.10;99.90;;;;;;5044002;28;20178;-87
2022/06/10 05:47:48;;;;;;;4.77;1.43;;;12.30;99.90;;;;;;5045326;28;20174;-87
2022/06/10 05:50:23;;;;;;;3.03;1.60;;;12.40;99.90;;;;;;5044839;28;20182;-86
2022/06/10 05:52:49;;;;;;;3.33;1.37;;;12.50;99.90;;;;;;5043767;28;20174;-86
2022/06/10 05:55:15;;;;;;;2.13;1.30;;;12.60;99.90;;;;;;5044823;28;20211;-86
2022/06/10 05:57:41;;;;;;;3.63;1.60;;;12.80;99.90;;;;;;5044645;28;20190;-87
2022/06/10 06:00:13;;;;;;;1.80;1.23;;;12.90;99.90;;;;;;5045348;28;20178;-86
2022/06/10 06:02:41;;;;;;;4.43;1.50;;;13.00;99.90;;;;;;5044824;28;20249;-86
2022/06/10 06:05:09;;;;;;;5.23;1.63;;;13.10;99.90;;;;;;5045259;28;20174;-87
2022/06/10 06:07:37;;;;;;;3.00;1.63;;;13.20;99.90;;;;;;5045740;28;20261;-86
2022/06/10 06:10:03;;;;;;;3.30;1.57;;;13.30;99.90;;;;;;5048460;28;20221;-86
2022/06/10 06:12:29;;;;;;;2.20;1.57;;;13.40;99.90;;;;;;5051020;28;20178;-86
2022/06/10 06:14:55;;;;;;;4.90;1.37;;;13.40;99.90;;;;;;5044788;28;20174;-86
2022/06/10 06:17:21;;;;;;;3.33;1.43;;;13.40;99.90;;;;;;5043175;28;20209;-87
2022/06/10 06:19:48;;;;;;;2.73;1.50;;;13.30;99.90;;;;;;5043110;28;20722;-87
2022/06/10 06:22:13;;;;;;;4.60;1.40;;;13.30;99.90;;;;;;5043526;28;20198;-86
2022/06/10 06:24:39;;;;;;;2.37;1.33;;;13.30;99.90;;;;;;5043402;28;20262;-86
2022/06/10 06:27:12;;;;;;;2.57;1.27;;;13.30;99.90;;;;;;5043912;28;20177;-86
2022/06/10 06:29:37;;;;;;;2.57;1.30;;;13.30;99.90;;;;;;5043859;28;20686;-87
2022/06/10 06:32:04;;;;;;;2.87;1.30;;;13.30;99.90;;;;;;5043557;28;20264;-86
2022/06/10 06:34:29;;;;;;;4.63;1.50;;;13.30;99.90;;;;;;5043388;28;20179;-87
2022/06/10 06:36:56;;;;;;;5.07;1.20;;;13.40;99.90;;;;;;5043560;28;20181;-87
2022/06/10 06:39:24;;;;;;;3.83;1.37;;;13.40;99.90;;;;;;5043633;28;20194;-87
2022/06/10 06:41:52;;;;;;;3.53;1.30;;;13.50;99.90;;;;;;5043822;28;20171;-87
2022/06/10 06:44:18;;;;;;;4.37;1.27;;;13.60;99.90;;;;;;5044683;28;20182;-86
2022/06/10 06:46:45;;;;;;;2.43;1.00;;;13.70;99.90;;;;;;5042824;28;20262;-86
2022/06/10 06:49:23;;;;;;;2.50;1.17;;;13.80;99.90;;;;;;5043361;28;20194;-86
2022/06/10 06:51:50;;;;;;;4.23;1.40;;;13.70;99.90;;;;;;5044320;28;20166;-87
2022/06/10 06:54:17;;;;;;;2.70;1.20;;;13.70;99.90;;;;;;5042557;28;20198;-86
2022/06/10 06:56:43;;;;;;;2.50;1.17;;;13.70;99.90;;;;;;5043415;28;20174;-86
2022/06/10 06:59:09;;;;;;;4.37;1.40;;;13.80;99.90;;;;;;5043189;28;20209;-86
2022/06/10 07:01:35;;;;;;;4.13;1.40;;;13.90;99.90;;;;;;5042753;28;20269;-86
2022/06/10 07:04:03;;;;;;;3.97;1.90;;;13.90;99.90;;;;;;5041684;28;20198;-86
2022/06/10 07:06:29;;;;;;;2.90;1.10;;;14.00;99.90;;;;;;5042189;28;20511;-86
2022/06/10 07:08:55;;;;;;;2.13;1.30;;;14.00;99.90;;;;;;5041772;28;20217;-87
2022/06/10 07:11:20;;;;;;;5.03;1.73;;;14.10;99.90;;;;;;5041975;28;20178;-86
2022/06/10 07:13:47;;;;;;;5.10;1.50;;;;;;;;;;5042486;28;20277;-86
2022/06/10 07:16:13;;;;;;;4.93;1.90;;;14.20;99.90;;;;;;5043668;28;20186;-85
2022/06/10 07:18:39;;;;;;;3.77;1.80;;;14.30;99.90;;;;;;5042335;28;20190;-86
2022/06/10 07:21:05;;;;;;;4.40;1.73;;;14.40;99.90;;;;;;5041964;28;20178;-85
2022/06/10 07:23:31;;;;;;;2.87;1.63;;;14.50;99.90;;;;;;5043403;28;20202;-85
2022/06/10 07:25:59;;;;;;;4.33;1.70;;;14.60;99.90;;;;;;5041977;28;20186;-85
2022/06/10 07:28:25;;;;;;;2.93;1.70;;;14.70;99.90;;;;;;5042648;28;20208;-85
2022/06/10 07:30:51;;;;;;;6.07;1.63;;;14.90;99.90;;;;;;5041654;28;20252;-85
2022/06/10 07:33:17;;;;;;;3.47;1.73;;;15.10;99.90;;;;;;5042031;28;20644;-85
2022/06/10 07:35:43;;;;;;;5.37;2.20;;;15.30;99.90;;;;;;5042058;28;20274;-85
2022/06/10 07:38:09;;;;;;;3.23;1.60;;;15.40;99.90;;;;;;5042786;28;20198;-85
2022/06/10 07:43:26;;;;;;;4.67;2.03;;;15.80;99.90;;;;;;5043183;28;20335;-85
2022/06/10 07:45:52;;;;;;;3.43;1.40;;;16.00;99.90;;;;;;5041451;28;20591;-85
2022/06/10 07:48:19;;;;;;;4.33;1.70;;;16.20;99.90;;;;;;5040984;28;20584;-85
2022/06/10 07:50:46;;;;;;;3.20;1.80;;;16.30;99.90;;;;;;5040530;28;20273;-85
2022/06/10 07:53:12;;;;;;;4.60;2.07;;;16.40;99.90;;;;;;5042309;28;20179;-85
2022/06/10 07:55:39;;;;;;;5.77;2.07;;;16.30;99.90;;;;;;5045972;28;20177;-86
2022/06/10 07:58:06;;;;;;;5.83;1.80;;;16.20;99.90;;;;;;5041726;28;20265;-86
2022/06/10 08:00:34;;;;;;;3.40;2.20;;;16.20;99.90;;;;;;5042210;28;20183;-85
2022/06/10 08:03:00;;;;;;;8.70;2.00;;;16.10;99.90;;;;;;5041505;28;20213;-85
2022/06/10 08:05:27;;;;;;;5.83;1.97;;;16.00;99.90;;;;;;5041760;28;20180;-85
2022/06/10 08:07:52;;;;;;;4.63;2.00;;;15.90;99.90;;;;;;5041980;28;20176;-85
2022/06/10 08:10:27;;;;;;;6.00;2.17;;;15.80;99.90;;;;;;5043300;28;20159;-86
2022/06/10 08:12:53;;;;;;;3.33;1.63;;;15.60;99.90;;;;;;5040914;28;20186;-86
2022/06/10 08:15:21;;;;;;;4.30;2.17;;;15.60;99.90;;;;;;5044281;28;20181;-85
2022/06/10 08:17:46;;;;;;;4.87;2.10;;;15.50;99.90;;;;;;5045262;28;20185;-86
2022/06/10 08:20:22;;;;;;;2.60;1.60;;;15.60;99.90;;;;;;5044565;28;20241;-86
2022/06/10 08:22:48;;;;;;;4.57;2.07;;;15.60;99.90;;;;;;5044759;28;20203;-86
2022/06/10 08:25:14;;;;;;;4.53;2.07;;;15.50;99.90;;;;;;5044740;28;20179;-86
2022/06/10 08:27:41;;;;;;;5.67;2.03;;;;;;;;;;5044896;28;20263;-86
2022/06/10 08:30:12;;;;;;;3.93;1.63;;;15.50;99.90;;;;;;5044638;28;20274;-86
2022/06/10 08:32:37;;;;;;;5.30;1.80;;;15.70;99.90;;;;;;5045130;28;20167;-86
2022/06/10 08:35:05;;;;;;;5.90;2.00;;;16.00;99.90;;;;;;5046082;28;20232;-86
2022/06/10 08:37:30;;;;;;;4.63;2.40;;;16.40;99.90;;;;;;5045681;28;20541;-85
2022/06/10 08:39:56;;;;;;;2.23;1.63;;;16.60;99.90;;;;;;5044800;28;20202;-85
2022/06/10 08:42:41;;;;;;;5.03;2.13;;;16.50;99.90;;;;;;5045151;28;20211;-86
2022/06/10 08:45:31;;;;;;;3.27;2.30;;;16.40;99.90;;;;;;5044598;28;20528;-86
2022/06/10 08:48:41;;;;;;;5.97;1.90;;;16.20;99.90;;;;;;5041758;28;20179;-86
2022/06/10 08:51:22;;;;;;;2.83;1.40;;;16.10;99.90;;;;;;5011456;28;20184;-86
2022/06/10 08:54:06;;;;;;;4.73;1.80;;;16.20;99.90;;;;;;5041585;28;20177;-86
2022/06/10 08:56:40;;;;;;;3.13;1.80;;;16.60;99.90;;;;;;5041672;28;20182;-86
2022/06/10 08:59:08;;;;;;;4.53;1.97;;;17.10;99.90;;;;;;5043631;28;20202;-86
2022/06/10 09:01:47;;;;;;;3.53;1.43;;;17.70;99.90;;;;;;5042725;28;20252;-86
2022/06/10 09:04:30;;;;;;;3.33;1.70;;;18.10;99.90;;;;;;5041380;28;20208;-87
2022/06/10 09:07:01;;;;;;;2.33;1.33;;;18.60;99.90;;;;;;5041797;28;20599;-87
2022/06/10 09:09:29;;;;;;;3.23;1.37;;;18.90;99.90;;;;;;5043113;28;20207;-87
2022/06/10 09:12:11;;;;;;;3.77;1.90;;;19.20;99.90;;;;;;5041890;28;20537;-87
2022/06/10 09:14:38;;;;;;;4.07;1.80;;;19.30;99.90;;;;;;5041075;28;20178;-87
2022/06/10 09:17:15;;;;;;;5.20;1.90;;;19.50;99.90;;;;;;5040377;28;20198;-86
2022/06/10 09:19:59;;;;;;;3.60;1.77;;;19.80;99.90;;;;;;5040251;28;20202;-86
2022/06/10 09:22:50;;;;;;;3.07;1.77;;;20.00;99.90;;;;;;5040990;28;20284;-86
2022/06/10 09:25:24;;;;;;;3.50;1.90;;;19.80;99.90;;;;;;5039202;28;20182;-87
2022/06/10 09:27:56;;;;;;;4.20;1.80;;;19.50;99.90;;;;;;5039158;28;20159;-87
2022/06/10 09:30:33;;;;;;;3.43;1.60;;;19.30;99.90;;;;;;5040306;28;20166;-87
2022/06/10 09:33:29;;;;;;;2.83;1.60;;;19.40;99.90;;;;;;5039380;28;20174;-87
2022/06/10 09:36:25;;;;;;;5.13;1.90;;;19.60;99.90;;;;;;5025565;28;20277;-87
2022/06/10 09:42:21;;;;;;;3.73;1.60;;;20.40;99.90;;;;;;5053499;28;20166;-87
2022/06/10 09:45:06;;;;;;;3.10;1.30;;;20.70;99.90;;;;;;5052407;28;20189;-83
2022/06/10 09:47:55;;;;;;;4.30;1.67;;;20.60;99.90;;;;;;5039957;28;20669;-86
2022/06/10 09:50:48;;;;;;;4.40;1.50;;;20.10;99.90;;;;;;5039623;28;20177;-86
2022/06/10 09:53:32;;;;;;;5.13;1.87;;;20.10;99.90;;;;;;5035385;28;20198;-86
2022/06/10 09:56:33;;;;;;;5.23;1.60;;;19.80;99.90;;;;;;5039246;28;20174;-85
2022/06/10 09:59:24;;;;;;;2.93;1.80;;;19.80;99.90;;;;;;5038768;28;20205;-85
2022/06/10 10:01:55;;;;;;;2.83;1.73;;;19.80;99.90;;;;;;5038790;28;20170;-85
2022/06/10 10:04:48;;;;;;;5.43;2.07;;;19.70;99.90;;;;;;5039296;28;20198;-86
2022/06/10 10:07:47;;;;;;;3.90;1.77;;;19.80;99.90;;;;;;5038215;28;20639;-85
2022/06/10 10:10:32;;;;;;;2.13;1.40;;;20.30;99.90;;;;;;5039777;28;20202;-85
2022/06/10 10:13:35;;;;;;;4.90;1.90;;;20.50;99.90;;;;;;5039719;28;20170;-86
2022/06/10 10:16:23;;;;;;;7.20;2.53;;;20.70;99.90;;;;;;5040616;28;20209;-86
2022/06/10 10:19:17;;;;;;;3.43;1.50;;;20.30;99.90;;;;;;5039859;28;20203;-85
2022/06/10 10:22:07;;;;;;;3.10;1.80;;;19.90;99.90;;;;;;5040722;28;20217;-86
2022/06/10 10:24:39;;;;;;;3.57;1.50;;;19.60;99.90;;;;;;5040774;28;20202;-86
2022/06/10 10:27:26;;;;;;;4.30;2.07;;;20.00;99.90;;;;;;5041671;28;20599;-84
2022/06/10 10:29:58;;;;;;;3.60;1.80;;;20.60;99.90;;;;;;5040164;28;20204;-86
2022/06/10 10:32:29;;;;;;;3.07;1.60;;;21.00;99.90;;;;;;5039457;28;20163;-85
2022/06/10 10:35:03;;;;;;;4.27;1.90;;;21.40;99.90;;;;;;5039322;28;20277;-86
2022/06/10 10:37:34;;;;;;;5.47;1.83;;;21.60;99.90;;;;;;5040352;28;20250;-84
2022/06/10 10:40:18;;;;;;;3.43;1.43;;;21.60;99.90;;;;;;5039291;28;20205;-85
2022/06/10 10:42:46;;;;;;;1.77;1.10;;;21.10;99.90;;;;;;5039916;28;20530;-84
2022/06/10 10:45:46;;;;;;;4.93;1.50;;;20.50;99.90;;;;;;5039145;28;20285;-84
2022/06/10 10:48:23;;;;;;;2.07;1.80;;;20.10;99.90;;;;;;5035756;28;20201;-84
2022/06/10 10:51:21;;;;;;;3.67;2.30;;;19.70;99.90;;;;;;5041476;28;20238;-86
2022/06/10 10:54:02;;;;;;;4.93;1.50;;;19.30;99.90;;;;;;5039522;28;20185;-85
2022/06/10 10:56:35;;;;;;;3.93;1.50;;;18.90;99.90;;;;;;5040659;28;20162;-85
2022/06/10 10:59:00;;;;;;;3.17;1.80;;;18.60;99.90;;;;;;5040219;28;20280;-85
2022/06/10 11:01:51;;;;;;;1.80;1.50;;;18.40;99.90;;;;;;5039745;28;20182;-86
2022/06/10 11:04:33;;;;;;;4.70;2.00;;;18.30;99.90;;;;;;5043321;28;20582;-85
2022/06/10 11:07:11;;;;;;;4.57;2.00;;;18.30;99.90;;;;;;5041643;28;20159;-85
2022/06/10 11:09:49;;;;;;;4.37;2.13;;;18.20;99.90;;;;;;5040741;28;20300;-85
2022/06/10 11:12:22;;;;;;;5.67;1.90;;;18.30;99.90;;;;;;5041259;28;20172;-85
2022/06/10 11:14:56;;;;;;;2.50;1.67;;;18.30;99.90;;;;;;5024903;28;20174;-84
2022/06/10 11:17:24;;;;;;;4.63;1.77;;;18.30;99.90;;;;;;5041329;28;20197;-83
2022/06/10 11:19:56;;;;;;;3.83;1.80;;;18.30;99.90;;;;;;5040677;28;20190;-86
2022/06/10 11:22:35;;;;;;;4.37;2.03;;;18.30;99.90;;;;;;5038780;28;20213;-85
2022/06/10 11:25:01;;;;;;;4.20;1.70;;;18.40;99.90;;;;;;5039364;28;20655;-86
2022/06/10 11:27:40;;;;;;;4.50;1.93;;;18.40;99.90;;;;;;5042076;28;20170;-85
2022/06/10 11:30:15;;;;;;;2.70;1.70;;;18.30;99.90;;;;;;5042118;28;20158;-85
2022/06/10 11:32:47;;;;;;;5.50;1.90;;;18.30;99.90;;;;;;5041611;28;20181;-85
2022/06/10 11:35:38;;;;;;;2.50;1.70;;;18.40;99.90;;;;;;5039294;28;20180;-86
2022/06/10 11:38:28;;;;;;;2.80;1.97;;;18.30;99.90;;;;;;5038493;28;20201;-86
2022/06/10 11:40:57;;;;;;;3.67;2.00;;;18.30;99.90;;;;;;5038553;28;20174;-86
2022/06/10 11:43:34;;;;;;;3.07;1.77;;;18.40;99.90;;;;;;5039761;28;20690;-87
2022/06/10 11:46:18;;;;;;;4.87;1.90;;;18.70;99.90;;;;;;5038316;28;20159;-86
2022/06/10 11:48:57;;;;;;;4.17;2.30;;;21.10;99.90;;;;;;5038311;28;20198;-86
2022/06/10 11:51:31;;;;;;;3.30;2.00;;;21.70;99.90;;;;;;5042531;28;20182;-87
2022/06/10 11:54:16;;;;;;;4.70;1.73;;;22.70;99.90;;;;;;5040195;28;20170;-86
2022/06/10 12:00:06;;;;;;;4.67;1.50;;;23.60;99.90;;;;;;5041187;28;20260;-87
2022/06/10 12:02:50;;;;;;;2.17;1.57;;;23.70;99.90;;;;;;5042395;28;20204;-86
2022/06/10 12:05:19;;;;;;;2.83;1.47;;;24.40;99.90;;;;;;5040724;28;20614;-87
2022/06/10 12:08:14;;;;;;;4.17;1.70;;;25.30;99.90;;;;;;5039796;28;20180;-86
2022/06/10 12:11:00;;;;;;;2.47;1.30;;;25.40;99.90;;;;;;5033101;28;20305;-86
2022/06/10 12:13:30;;;;;;;5.43;1.50;;;25.60;99.90;;;;;;5042554;28;20162;-86
2022/06/10 12:15:58;;;;;;;3.20;1.40;;;25.50;99.90;;;;;;5040744;28;20182;-86
2022/06/10 12:18:29;;;;;;;2.10;1.20;;;24.50;99.90;;;;;;5040242;28;20583;-86
2022/06/10 12:21:02;;;;;;;2.47;1.27;;;23.60;99.90;;;;;;5040587;28;20690;-86
2022/06/10 12:23:31;;;;;;;2.20;1.40;;;23.40;99.90;;;;;;5042102;28;20219;-86
2022/06/10 12:26:30;;;;;;;4.33;1.43;;;23.90;99.90;;;;;;5040302;28;20539;-86
2022/06/10 12:29:03;;;;;;;2.47;1.37;;;24.00;99.90;;;;;;5051478;28;20555;-86
2022/06/10 12:32:03;;;;;;;2.93;1.20;;;24.30;99.90;;;;;;5040646;28;20240;-84
2022/06/10 12:34:29;;;;;;;2.53;1.40;;;;;;;;;;5045123;28;20166;-85
2022/06/10 12:37:03;;;;;;;3.57;1.40;;;22.30;99.90;;;;;;5043314;28;20629;-86
2022/06/10 12:39:39;;;;;;;2.00;1.23;;;21.80;99.90;;;;;;5042495;28;20213;-85
2022/06/10 12:42:37;;;;;;;1.93;1.30;;;21.40;99.90;;;;;;5044805;28;20170;-86
2022/06/10 12:45:05;;;;;;;2.90;1.30;;;21.10;99.90;;;;;;5044834;28;20171;-85
2022/06/10 12:47:37;;;;;;;2.07;1.20;;;20.80;99.90;;;;;;5042963;28;20178;-84
2022/06/10 12:50:20;;;;;;;2.30;1.40;;;20.70;99.90;;;;;;5044906;28;20656;-84
2022/06/10 12:53:00;;;;;;;2.83;1.33;;;20.50;99.90;;;;;;5043906;28;20182;-84
2022/06/10 12:55:31;;;;;;;2.77;1.47;;;20.40;99.90;;;;;;5043321;28;20253;-86
2022/06/10 12:57:57;;;;;;;4.13;1.40;;;20.20;99.90;;;;;;5043164;28;20183;-84
2022/06/10 13:00:32;;;;;;;1.97;1.30;;;20.20;99.90;;;;;;5040447;28;20685;-83
2022/06/10 13:03:22;;;;;;;4.37;1.53;;;20.10;99.90;;;;;;5040710;28;20292;-86
2022/06/10 13:05:49;;;;;;;4.07;1.73;;;20.00;99.90;;;;;;5039467;28;20220;-83
2022/06/10 13:08:37;;;;;;;3.20;1.70;;;20.00;99.90;;;;;;5039949;28;20690;-83
2022/06/10 13:11:07;;;;;;;4.77;1.67;;;20.00;99.90;;;;;;5038224;28;20182;-86
2022/06/10 13:13:35;;;;;;;3.20;1.60;;;20.10;99.90;;;;;;5040945;28;20641;-85
2022/06/10 13:16:45;;;;;;;2.50;1.50;;;20.10;99.90;;;;;;5038934;28;20189;-84
2022/06/10 13:19:34;;;;;;;2.23;1.67;;;20.20;99.90;;;;;;5038680;28;20206;-83
2022/06/10 13:22:20;;;;;;;5.57;1.80;;;20.10;99.90;;;;;;5039813;28;20613;-84
2022/06/10 13:24:52;;;;;;;3.07;1.87;;;20.10;99.90;;;;;;5041499;28;20209;-84
2022/06/10 13:27:21;;;;;;;5.60;1.70;;;20.10;99.90;;;;;;5041338;28;20205;-84
2022/06/10 13:29:52;;;;;;;3.77;2.20;;;20.00;99.90;;;;;;5040913;28;20189;-84
2022/06/10 13:32:17;;;;;;;2.23;1.70;;;20.00;99.90;;;;;;5039597;28;20597;-84
2022/06/10 13:34:52;;;;;;;2.83;1.70;;;20.10;99.90;;;;;;5041691;28;20259;-84
2022/06/10 13:37:20;;;;;;;4.60;1.67;;;20.30;99.90;;;;;;5040064;28;20257;-84